createdAt,value
2019-03-29T00:00:46.870Z,19.70
2019-03-29T00:03:16.702Z,16.83
2019-03-29T00:05:46.225Z,18.87
2019-03-29T00:08:15.821Z,19.00
2019-03-29T00:10:47.053Z,16.30
2019-03-29T00:13:16.850Z,16.27
2019-03-29T00:15:46.552Z,16.27
2019-03-29T00:18:16.061Z,18.93
2019-03-29T00:20:47.036Z,18.83
2019-03-29T00:23:16.766Z,17.70
2019-03-29T00:25:46.307Z,18.83
2019-03-29T00:28:15.857Z,18.40
2019-03-29T00:30:45.845Z,17.63
2019-03-29T00:33:15.379Z,17.23
2019-03-29T00:35:45.109Z,18.33
2019-03-29T00:38:14.627Z,19.57
2019-03-29T00:40:44.208Z,19.07
2019-03-29T00:43:14.338Z,20.30
2019-03-29T00:45:43.938Z,19.63
2019-03-29T00:48:13.526Z,19.43
2019-03-29T00:50:43.214Z,18.97
2019-03-29T00:53:12.763Z,19.20
2019-03-29T00:55:42.453Z,19.77
2019-03-29T00:58:12.058Z,21.47
2019-03-29T01:00:41.573Z,19.83
2019-03-29T01:03:11.263Z,20.17
2019-03-29T01:05:40.879Z,20.00
2019-03-29T01:08:10.937Z,19.03
2019-03-29T01:10:40.563Z,19.90
2019-03-29T01:13:10.097Z,20.70
2019-03-29T01:15:39.747Z,20.33
2019-03-29T01:18:09.311Z,19.27
2019-03-29T01:20:38.878Z,20.40
2019-03-29T01:23:08.425Z,19.00
2019-03-29T01:25:37.969Z,20.27
2019-03-29T01:28:07.525Z,21.10
2019-03-29T01:30:37.146Z,22.23
2019-03-29T01:33:07.073Z,20.57
2019-03-29T01:35:36.670Z,21.57
2019-03-29T01:38:06.321Z,20.33
2019-03-29T01:40:35.886Z,21.77
2019-03-29T01:43:05.386Z,20.23
2019-03-29T01:45:34.940Z,20.37
2019-03-29T01:48:04.621Z,21.77
2019-03-29T01:50:34.940Z,22.70
2019-03-29T01:53:04.670Z,21.97
2019-03-29T01:55:34.231Z,20.97
2019-03-29T01:58:04.221Z,22.77
2019-03-29T02:00:36.136Z,21.10
2019-03-29T02:03:06.807Z,21.20
2019-03-29T02:05:36.464Z,21.60
2019-03-29T02:08:05.984Z,21.50
2019-03-29T02:10:35.607Z,21.77
2019-03-29T02:13:05.252Z,21.30
2019-03-29T02:15:34.745Z,23.17
2019-03-29T02:18:04.324Z,22.07
2019-03-29T02:20:33.866Z,20.73
2019-03-29T02:23:04.136Z,23.40
2019-03-29T02:25:34.373Z,22.23
2019-03-29T02:28:04.051Z,24.50
2019-03-29T02:30:35.651Z,20.63
2019-03-29T02:33:05.315Z,22.60
2019-03-29T02:35:34.910Z,21.87
2019-03-29T02:38:04.619Z,22.43
2019-03-29T02:40:34.497Z,23.37
2019-03-29T02:43:04.222Z,26.23
2019-03-29T02:45:33.917Z,22.93
2019-03-29T02:48:03.542Z,24.97
2019-03-29T02:50:33.177Z,22.97
2019-03-29T02:53:02.700Z,22.90
2019-03-29T02:55:32.338Z,24.07
2019-03-29T02:58:01.986Z,19.87
2019-03-29T03:00:31.543Z,24.37
2019-03-29T03:03:01.122Z,23.03
2019-03-29T03:05:30.766Z,21.80
2019-03-29T03:08:00.380Z,24.10
2019-03-29T03:10:30.043Z,21.90
2019-03-29T03:12:59.572Z,23.50
2019-03-29T03:15:29.110Z,20.73
2019-03-29T03:17:58.740Z,23.97
2019-03-29T03:20:28.299Z,25.40
2019-03-29T03:22:57.848Z,23.77
2019-03-29T03:25:27.426Z,23.10
2019-03-29T03:27:57.022Z,24.00
2019-03-29T03:30:26.732Z,21.27
2019-03-29T03:32:56.279Z,22.50
2019-03-29T03:35:25.886Z,21.47
2019-03-29T03:37:55.492Z,27.73
2019-03-29T03:40:25.027Z,25.37
2019-03-29T03:42:54.551Z,24.90
2019-03-29T03:45:24.097Z,26.00
2019-03-29T03:47:53.644Z,25.97
2019-03-29T03:50:26.281Z,25.20
2019-03-29T03:52:55.988Z,25.80
2019-03-29T03:55:25.673Z,27.37
2019-03-29T03:57:57.764Z,26.50
2019-03-29T04:00:29.804Z,27.17
2019-03-29T04:02:59.472Z,25.33
2019-03-29T04:05:29.053Z,24.60
2019-03-29T04:07:58.725Z,24.73
2019-03-29T04:10:29.487Z,23.03
2019-03-29T04:12:59.118Z,22.20
2019-03-29T04:15:28.762Z,23.97
2019-03-29T04:17:58.462Z,22.77
2019-03-29T04:20:28.067Z,21.43
2019-03-29T04:22:57.871Z,24.73
2019-03-29T04:25:27.396Z,24.50
2019-03-29T04:27:57.977Z,23.50
2019-03-29T04:30:27.545Z,24.27
2019-03-29T04:32:58.047Z,24.30
2019-03-29T04:35:27.643Z,26.27
2019-03-29T04:37:57.229Z,24.90
2019-03-29T04:40:26.878Z,27.63
2019-03-29T04:42:56.441Z,27.70
2019-03-29T04:45:26.059Z,24.60
2019-03-29T04:47:55.716Z,25.00
2019-03-29T04:50:25.313Z,24.43
2019-03-29T04:52:54.837Z,22.90
2019-03-29T04:55:24.427Z,26.30
2019-03-29T04:57:54.005Z,23.00
2019-03-29T05:00:23.603Z,24.67
2019-03-29T05:02:53.169Z,22.87
2019-03-29T05:05:22.730Z,23.87
2019-03-29T05:07:52.586Z,22.77
2019-03-29T05:10:22.151Z,24.37
2019-03-29T05:12:51.706Z,25.37
2019-03-29T05:15:21.257Z,22.47
2019-03-29T05:17:50.811Z,21.43
2019-03-29T05:20:20.349Z,24.70
2019-03-29T05:22:50.037Z,26.07
2019-03-29T05:25:19.641Z,24.40
2019-03-29T05:27:49.233Z,23.07
2019-03-29T05:30:18.758Z,24.07
2019-03-29T05:32:48.291Z,23.43
2019-03-29T05:35:17.866Z,23.13
2019-03-29T05:37:47.843Z,23.77
2019-03-29T05:40:18.401Z,23.00
2019-03-29T05:42:47.917Z,24.87
2019-03-29T05:45:17.564Z,26.10
2019-03-29T05:47:47.204Z,24.17
2019-03-29T05:50:16.983Z,25.00
2019-03-29T05:52:46.540Z,25.67
2019-03-29T05:55:16.407Z,22.87
2019-03-29T05:57:46.050Z,26.90
2019-03-29T06:00:17.395Z,24.33
2019-03-29T06:02:47.143Z,25.33
2019-03-29T06:05:17.838Z,25.53
2019-03-29T06:07:47.416Z,25.90
2019-03-29T06:10:17.165Z,26.23
2019-03-29T06:12:46.846Z,25.20
2019-03-29T06:15:16.541Z,24.27
2019-03-29T06:17:48.827Z,26.63
2019-03-29T06:20:17.538Z,25.07
2019-03-29T06:22:47.118Z,25.07
2019-03-29T06:25:16.740Z,27.00
2019-03-29T06:27:46.342Z,25.40
2019-03-29T06:30:18.991Z,27.37
2019-03-29T06:32:48.547Z,26.17
2019-03-29T06:35:18.130Z,25.60
2019-03-29T06:37:48.397Z,24.87
2019-03-29T06:40:25.335Z,27.43
2019-03-29T06:42:54.973Z,25.27
2019-03-29T06:45:24.541Z,25.60
2019-03-29T06:47:54.176Z,24.60
2019-03-29T06:50:23.824Z,26.50
2019-03-29T06:52:53.388Z,23.47
2019-03-29T06:55:22.955Z,22.30
2019-03-29T06:57:52.555Z,23.90
2019-03-29T07:00:22.123Z,23.43
2019-03-29T07:02:51.718Z,23.73
2019-03-29T07:05:21.285Z,26.50
2019-03-29T07:07:50.822Z,25.00
2019-03-29T07:10:20.386Z,24.83
2019-03-29T07:12:50.004Z,26.27
2019-03-29T07:15:19.535Z,26.77
2019-03-29T07:17:49.093Z,26.03
2019-03-29T07:20:18.654Z,26.63
2019-03-29T07:22:48.215Z,23.90
2019-03-29T07:25:17.822Z,27.53
2019-03-29T07:27:52.293Z,25.73
2019-03-29T07:30:18.786Z,25.07
2019-03-29T07:32:48.306Z,25.67
2019-03-29T07:35:17.859Z,25.73
2019-03-29T07:37:47.507Z,23.87
2019-03-29T07:40:17.432Z,24.83
2019-03-29T07:42:46.970Z,24.77
2019-03-29T07:45:16.680Z,24.53
2019-03-29T07:47:46.350Z,23.70
2019-03-29T07:50:19.012Z,24.23
2019-03-29T07:52:47.243Z,23.87
2019-03-29T07:55:16.926Z,24.83
2019-03-29T07:57:46.587Z,23.73
2019-03-29T08:00:16.465Z,25.07
2019-03-29T08:02:46.621Z,24.70
2019-03-29T08:05:17.955Z,23.13
2019-03-29T08:07:47.681Z,24.67
2019-03-29T08:10:25.822Z,23.70
2019-03-29T08:12:49.690Z,22.77
2019-03-29T08:15:19.387Z,22.20
2019-03-29T08:17:48.971Z,23.27
2019-03-29T08:20:40.204Z,24.00
2019-03-29T08:22:49.775Z,23.93
2019-03-29T08:25:19.428Z,21.20
2019-03-29T08:27:49.218Z,20.07
2019-03-29T08:30:18.823Z,21.90
2019-03-29T08:32:48.337Z,19.63
2019-03-29T08:35:17.902Z,19.90
2019-03-29T08:37:47.500Z,20.17
2019-03-29T08:40:17.105Z,19.53
2019-03-29T08:42:46.637Z,21.83
2019-03-29T08:45:16.294Z,20.53
2019-03-29T08:47:45.840Z,19.17
2019-03-29T08:50:15.438Z,18.07
2019-03-29T08:52:44.994Z,18.40
2019-03-29T08:55:17.516Z,16.47
2019-03-29T08:57:45.889Z,16.53
2019-03-29T09:00:18.578Z,16.30
2019-03-29T09:02:48.657Z,14.93
2019-03-29T09:05:18.207Z,16.43
2019-03-29T09:07:48.217Z,16.27
2019-03-29T09:10:23.231Z,16.13
2019-03-29T09:12:52.868Z,16.03
2019-03-29T09:15:22.758Z,17.17
2019-03-29T09:17:52.374Z,16.57
2019-03-29T09:20:22.038Z,15.27
2019-03-29T09:22:51.779Z,16.40
2019-03-29T09:25:21.453Z,16.50
2019-03-29T09:27:51.000Z,16.30
2019-03-29T09:30:20.642Z,16.43
2019-03-29T09:32:51.474Z,16.50
2019-03-29T09:35:21.555Z,16.67
2019-03-29T09:37:51.187Z,16.33
2019-03-29T09:40:20.865Z,17.23
2019-03-29T09:43:05.727Z,16.20
2019-03-29T09:45:21.739Z,17.27
2019-03-29T09:47:51.348Z,17.57
2019-03-29T09:50:22.881Z,17.70
2019-03-29T09:52:52.305Z,15.90
2019-03-29T09:55:21.939Z,16.07
2019-03-29T09:57:51.541Z,15.80
2019-03-29T10:00:23.569Z,15.00
2019-03-29T10:02:52.438Z,17.07
2019-03-29T10:05:22.024Z,17.83
2019-03-29T10:07:51.718Z,16.87
2019-03-29T10:10:21.310Z,17.40
2019-03-29T10:12:50.867Z,17.10
2019-03-29T10:15:20.588Z,16.10
2019-03-29T10:17:50.129Z,16.33
2019-03-29T10:20:19.686Z,16.80
2019-03-29T10:22:49.322Z,15.33
2019-03-29T10:25:20.168Z,15.63
2019-03-29T10:27:50.106Z,15.23
2019-03-29T10:30:40.746Z,14.27
2019-03-29T10:33:10.626Z,13.83
2019-03-29T10:35:51.409Z,15.00
2019-03-29T10:38:11.642Z,15.37
2019-03-29T10:40:41.254Z,13.53
2019-03-29T10:43:10.871Z,13.93
2019-03-29T10:45:40.959Z,14.47
2019-03-29T10:48:10.511Z,14.60
2019-03-29T10:50:40.209Z,14.50
2019-03-29T10:53:09.775Z,13.97
2019-03-29T10:55:39.398Z,13.20
2019-03-29T10:58:09.887Z,12.63
2019-03-29T11:00:41.003Z,13.03
2019-03-29T11:03:10.790Z,12.87
2019-03-29T11:05:40.448Z,10.00
2019-03-29T11:08:11.943Z,10.67
2019-03-29T11:10:41.458Z,11.60
2019-03-29T11:13:13.976Z,9.77
2019-03-29T11:15:42.487Z,9.10
2019-03-29T11:18:12.095Z,10.53
2019-03-29T11:20:41.673Z,8.93
2019-03-29T11:23:11.392Z,11.93
2019-03-29T11:25:41.075Z,10.60
2019-03-29T11:28:10.785Z,8.40
2019-03-29T11:30:42.842Z,9.00
2019-03-29T11:33:11.868Z,9.33
2019-03-29T11:35:41.471Z,8.77
2019-03-29T11:38:11.050Z,9.47
2019-03-29T11:40:40.697Z,8.83
2019-03-29T11:43:10.299Z,9.37
2019-03-29T11:45:39.866Z,10.43
2019-03-29T11:48:09.849Z,11.90
2019-03-29T11:50:39.562Z,10.37
2019-03-29T11:53:09.161Z,10.27
2019-03-29T11:55:38.679Z,11.33
2019-03-29T11:58:08.535Z,9.90
2019-03-29T12:00:38.577Z,8.80
2019-03-29T12:03:09.522Z,8.83
2019-03-29T12:05:39.567Z,9.70
2019-03-29T12:08:09.264Z,10.53
2019-03-29T12:10:38.810Z,10.33
2019-03-29T12:13:09.547Z,9.47
2019-03-29T12:15:39.222Z,10.43
2019-03-29T12:18:09.834Z,9.83
2019-03-29T12:20:39.578Z,10.40
2019-03-29T12:23:09.111Z,9.77
2019-03-29T12:25:38.680Z,10.47
2019-03-29T12:28:08.387Z,10.37
2019-03-29T12:30:38.910Z,10.43
2019-03-29T12:33:08.474Z,10.67
2019-03-29T12:35:38.108Z,9.67
2019-03-29T12:38:07.662Z,10.27
2019-03-29T12:40:37.197Z,9.80
2019-03-29T12:43:06.794Z,9.57
2019-03-29T12:45:36.340Z,10.23
2019-03-29T12:48:05.935Z,9.30
2019-03-29T12:50:35.503Z,9.90
2019-03-29T12:53:05.031Z,9.80
2019-03-29T12:55:34.698Z,11.27
2019-03-29T12:58:04.311Z,10.30
2019-03-29T13:00:34.006Z,10.30
2019-03-29T13:03:03.617Z,10.17
2019-03-29T13:05:33.147Z,9.67
2019-03-29T13:08:02.824Z,9.70
2019-03-29T13:10:33.467Z,9.27
2019-03-29T13:13:03.051Z,9.60
2019-03-29T13:15:32.686Z,9.87
2019-03-29T13:18:02.248Z,8.80
2019-03-29T13:20:31.883Z,9.87
2019-03-29T13:23:01.817Z,10.37
2019-03-29T13:25:32.595Z,9.50
2019-03-29T13:28:02.242Z,9.60
2019-03-29T13:30:31.957Z,8.63
2019-03-29T13:33:01.476Z,9.50
2019-03-29T13:35:31.095Z,9.30
2019-03-29T13:38:00.630Z,8.63
2019-03-29T13:40:30.239Z,9.30
2019-03-29T13:42:59.899Z,8.57
2019-03-29T13:45:29.615Z,9.40
2019-03-29T13:47:59.168Z,9.00
2019-03-29T13:50:29.024Z,8.83
2019-03-29T13:52:58.568Z,8.87
2019-03-29T13:55:28.198Z,10.00
2019-03-29T13:57:57.807Z,8.20
2019-03-29T14:00:27.418Z,8.27
2019-03-29T14:02:57.023Z,9.90
2019-03-29T14:05:26.629Z,9.57
2019-03-29T14:07:56.403Z,10.50
2019-03-29T14:10:26.047Z,9.40
2019-03-29T14:12:55.538Z,7.57
2019-03-29T14:15:25.086Z,8.63
2019-03-29T14:17:54.663Z,9.30
2019-03-29T14:20:29.753Z,9.60
2019-03-29T14:22:59.323Z,8.43
2019-03-29T14:25:28.928Z,9.00
2019-03-29T14:27:58.542Z,8.40
2019-03-29T14:30:28.125Z,7.60
2019-03-29T14:32:57.695Z,9.37
2019-03-29T14:35:27.302Z,9.03
2019-03-29T14:37:56.849Z,9.07
2019-03-29T14:40:26.662Z,7.77
2019-03-29T14:42:56.390Z,7.73
2019-03-29T14:45:26.023Z,8.67
2019-03-29T14:47:55.575Z,9.87
2019-03-29T14:50:25.098Z,8.30
2019-03-29T14:52:54.739Z,7.83
2019-03-29T14:55:24.344Z,8.40
2019-03-29T14:57:53.891Z,8.10
2019-03-29T15:00:43.133Z,7.73
2019-03-29T15:03:12.887Z,7.47
2019-03-29T15:05:43.535Z,8.47
2019-03-29T15:08:13.251Z,7.23
2019-03-29T15:10:45.589Z,8.60
2019-03-29T15:13:15.218Z,8.23
2019-03-29T15:15:44.817Z,8.27
2019-03-29T15:18:14.567Z,7.20
2019-03-29T15:20:53.452Z,7.67
2019-03-29T15:23:15.521Z,7.67
2019-03-29T15:25:45.131Z,8.70
2019-03-29T15:28:14.734Z,8.43
2019-03-29T15:30:44.376Z,9.40
2019-03-29T15:33:13.975Z,9.97
2019-03-29T15:35:43.588Z,9.43
2019-03-29T15:38:13.142Z,10.30
2019-03-29T15:40:42.676Z,10.13
2019-03-29T15:43:12.300Z,10.00
2019-03-29T15:45:41.866Z,10.37
2019-03-29T15:48:11.486Z,8.90
2019-03-29T15:50:41.121Z,8.40
2019-03-29T15:53:10.694Z,7.67
2019-03-29T15:55:40.303Z,8.23
2019-03-29T15:58:09.858Z,8.47
2019-03-29T16:00:39.434Z,8.00
2019-03-29T16:03:09.139Z,9.80
2019-03-29T16:05:38.717Z,9.60
2019-03-29T16:08:08.658Z,9.27
2019-03-29T16:10:41.054Z,9.13
2019-03-29T16:13:09.594Z,9.90
2019-03-29T16:15:39.143Z,8.20
2019-03-29T16:18:08.686Z,8.77
2019-03-29T16:20:38.251Z,10.80
2019-03-29T16:23:07.799Z,10.20
2019-03-29T16:25:37.326Z,9.80
2019-03-29T16:28:06.894Z,9.87
2019-03-29T16:30:36.434Z,9.80
2019-03-29T16:33:05.959Z,10.47
2019-03-29T16:35:35.566Z,9.47
2019-03-29T16:38:05.097Z,9.30
2019-03-29T16:40:34.660Z,10.03
2019-03-29T16:43:04.193Z,9.47
2019-03-29T16:45:46.895Z,10.30
2019-03-29T16:48:06.902Z,10.63
2019-03-29T16:50:36.573Z,10.20
2019-03-29T16:53:06.110Z,10.00
2019-03-29T16:55:35.676Z,9.77
2019-03-29T16:58:05.267Z,9.43
2019-03-29T17:00:34.963Z,10.27
2019-03-29T17:03:04.682Z,9.30
2019-03-29T17:05:34.308Z,10.20
2019-03-29T17:08:05.484Z,9.67
2019-03-29T17:10:35.230Z,9.20
2019-03-29T17:13:04.940Z,9.03
2019-03-29T17:15:34.767Z,9.27
2019-03-29T17:18:04.434Z,9.00
2019-03-29T17:20:33.986Z,9.07
2019-03-29T17:23:03.573Z,10.27
2019-03-29T17:25:33.216Z,9.23
2019-03-29T17:28:02.903Z,8.97
2019-03-29T17:30:38.797Z,9.10
2019-03-29T17:33:08.334Z,9.43
2019-03-29T17:35:37.974Z,9.80
2019-03-29T17:38:07.638Z,9.40
2019-03-29T17:40:37.190Z,9.70
2019-03-29T17:43:07.112Z,9.03
2019-03-29T17:45:36.786Z,8.30
2019-03-29T17:48:06.477Z,8.80
2019-03-29T17:50:36.038Z,9.30
2019-03-29T17:53:05.596Z,8.43
2019-03-29T17:55:35.228Z,8.50
2019-03-29T17:58:04.917Z,9.07
2019-03-29T18:00:34.559Z,10.60
2019-03-29T18:03:04.244Z,8.50
2019-03-29T18:05:33.786Z,7.17
2019-03-29T18:08:03.422Z,6.90
2019-03-29T18:10:33.040Z,6.80
2019-03-29T18:13:02.603Z,6.77
2019-03-29T18:15:32.150Z,7.40
2019-03-29T18:18:01.707Z,7.50
2019-03-29T18:20:31.321Z,7.40
2019-03-29T18:23:00.909Z,8.03
2019-03-29T18:25:30.458Z,7.30
2019-03-29T18:28:00.027Z,7.60
2019-03-29T18:30:40.902Z,7.40
2019-03-29T18:33:10.809Z,8.93
2019-03-29T18:35:40.400Z,8.80
2019-03-29T18:38:10.030Z,8.60
2019-03-29T18:40:39.675Z,9.70
2019-03-29T18:43:09.314Z,9.60
2019-03-29T18:45:41.590Z,9.40
2019-03-29T18:48:10.332Z,9.93
2019-03-29T18:50:39.924Z,10.17
2019-03-29T18:53:09.638Z,12.53
2019-03-29T18:55:39.212Z,12.87
2019-03-29T18:58:08.806Z,11.50
2019-03-29T19:00:38.442Z,13.37
2019-03-29T19:03:11.511Z,13.60
2019-03-29T19:05:39.313Z,14.20
2019-03-29T19:08:08.924Z,12.97
2019-03-29T19:10:38.590Z,13.37
2019-03-29T19:13:08.174Z,12.50
2019-03-29T19:15:37.767Z,13.70
2019-03-29T19:18:07.415Z,12.53
2019-03-29T19:20:36.960Z,14.13
2019-03-29T19:23:06.613Z,14.73
2019-03-29T19:25:36.183Z,14.40
2019-03-29T19:28:05.807Z,14.40
2019-03-29T19:30:35.493Z,14.57
2019-03-29T19:33:05.121Z,14.10
2019-03-29T19:35:35.306Z,13.47
2019-03-29T19:38:04.978Z,14.17
2019-03-29T19:40:34.570Z,13.93
2019-03-29T19:43:04.247Z,14.73
2019-03-29T19:45:34.402Z,14.73
2019-03-29T19:48:04.251Z,13.33
2019-03-29T19:50:33.863Z,14.80
2019-03-29T19:53:03.453Z,15.33
2019-03-29T19:55:33.081Z,15.40
2019-03-29T19:58:03.045Z,14.53
2019-03-29T20:00:37.427Z,15.37
2019-03-29T20:03:07.481Z,14.13
2019-03-29T20:05:37.191Z,14.47
2019-03-29T20:08:07.043Z,14.23
2019-03-29T20:10:36.753Z,14.17
2019-03-29T20:13:06.314Z,13.67
2019-03-29T20:15:36.002Z,13.40
2019-03-29T20:18:05.611Z,13.93
2019-03-29T20:20:35.209Z,12.70
2019-03-29T20:23:04.962Z,12.77
2019-03-29T20:25:34.491Z,13.00
2019-03-29T20:28:04.091Z,14.97
2019-03-29T20:30:33.678Z,13.47
2019-03-29T20:33:03.296Z,12.63
2019-03-29T20:35:32.819Z,14.93
2019-03-29T20:38:02.383Z,12.53
2019-03-29T20:40:32.306Z,13.63
2019-03-29T20:43:01.948Z,14.00
2019-03-29T20:45:31.632Z,14.07
2019-03-29T20:48:01.338Z,14.03
2019-03-29T20:50:30.950Z,13.13
2019-03-29T20:53:00.598Z,13.00
2019-03-29T20:55:30.198Z,14.77
2019-03-29T20:57:59.798Z,14.10
2019-03-29T21:00:29.407Z,12.20
2019-03-29T21:02:59.043Z,13.67
2019-03-29T21:05:28.617Z,13.70
2019-03-29T21:07:58.226Z,11.90
2019-03-29T21:10:27.892Z,13.43
2019-03-29T21:12:57.459Z,15.03
2019-03-29T21:15:27.106Z,12.60
2019-03-29T21:17:58.021Z,12.80
2019-03-29T21:20:27.751Z,13.00
2019-03-29T21:22:57.291Z,11.90
2019-03-29T21:25:27.221Z,13.53
2019-03-29T21:27:56.837Z,14.33
2019-03-29T21:30:26.597Z,14.73
2019-03-29T21:32:56.581Z,13.43
2019-03-29T21:35:26.121Z,14.50
2019-03-29T21:37:55.937Z,13.90
2019-03-29T21:40:25.563Z,15.70
2019-03-29T21:42:55.167Z,14.33
2019-03-29T21:45:29.022Z,14.60
2019-03-29T21:48:04.712Z,16.00
2019-03-29T21:50:27.275Z,15.60
2019-03-29T21:52:56.854Z,15.70
2019-03-29T21:55:26.502Z,14.80
2019-03-29T21:57:56.185Z,14.23
2019-03-29T22:00:25.796Z,14.30
2019-03-29T22:02:55.359Z,14.03
2019-03-29T22:05:24.965Z,13.70
2019-03-29T22:07:54.493Z,15.10
2019-03-29T22:10:24.029Z,13.87
2019-03-29T22:12:53.638Z,14.90
2019-03-29T22:15:23.249Z,15.23
2019-03-29T22:17:52.805Z,18.73
2019-03-29T22:20:22.472Z,18.30
2019-03-29T22:22:51.991Z,17.33
2019-03-29T22:25:21.514Z,16.30
2019-03-29T22:27:51.121Z,15.07
2019-03-29T22:30:21.087Z,14.73
2019-03-29T22:32:50.655Z,14.10
2019-03-29T22:35:20.363Z,15.83
2019-03-29T22:37:49.988Z,15.00
2019-03-29T22:40:19.582Z,15.57
2019-03-29T22:42:49.192Z,16.30
2019-03-29T22:45:18.721Z,16.63
2019-03-29T22:47:48.258Z,15.83
2019-03-29T22:50:18.066Z,15.67
2019-03-29T22:52:47.709Z,16.90
2019-03-29T22:55:17.230Z,16.10
2019-03-29T22:57:47.214Z,15.73
2019-03-29T23:00:35.579Z,15.87
2019-03-29T23:03:06.338Z,15.17
2019-03-29T23:05:36.444Z,14.90
2019-03-29T23:08:06.242Z,15.40
2019-03-29T23:10:36.275Z,15.60
2019-03-29T23:13:05.894Z,15.53
2019-03-29T23:15:35.676Z,15.60
2019-03-29T23:18:05.383Z,15.57
2019-03-29T23:20:35.371Z,14.83
2019-03-29T23:23:04.870Z,14.20
2019-03-29T23:25:34.665Z,15.03
2019-03-29T23:28:04.193Z,15.90
2019-03-29T23:30:33.802Z,14.97
2019-03-29T23:33:03.426Z,15.70
2019-03-29T23:35:33.011Z,16.53
2019-03-29T23:38:02.558Z,16.23
2019-03-29T23:40:32.218Z,15.63
2019-03-29T23:43:02.733Z,16.30
2019-03-29T23:45:32.283Z,16.00
2019-03-29T23:48:01.832Z,15.50
2019-03-29T23:50:31.453Z,15.40
2019-03-29T23:53:00.947Z,14.03
2019-03-29T23:55:30.514Z,15.43
2019-03-29T23:58:00.106Z,15.07
